Time;durP1;ratioP1;P1;durP2;ratioP2;P2;SDS_P1;SDS_P2;PMS_P1;PMS_P2;Temp;Humidity;BMP_temperature;BMP_pressure;BME280_temperature;BME280_humidity;BME280_pressure;Samples;Min_cycle;Max_cycle;Signal;HPM_P1;HPM_P2
2023/10/21 00:02:21;;;;;;;1.90;0.70;;;;;;;7.18;75.80;100276.31;5072461;28;20364;-76
2023/10/21 00:04:47;;;;;;;2.03;0.55;;;;;;;7.20;75.58;100259.06;5070924;28;20020;-76
2023/10/21 00:07:12;;;;;;;3.08;0.47;;;;;;;7.07;76.43;100269.63;5071020;28;20035;-76
2023/10/21 00:09:37;;;;;;;1.20;0.43;;;;;;;7.10;76.40;100279.94;5054111;28;20131;-76
2023/10/21 00:12:04;;;;;;;1.30;0.50;;;;;;;7.24;75.27;100254.97;5071435;28;20040;-76
2023/10/21 00:14:30;;;;;;;1.02;0.40;;;;;;;7.14;75.11;100242.94;5070525;28;20422;-76
2023/10/21 00:16:56;;;;;;;2.08;0.52;;;;;;;7.21;76.26;100273.25;5071136;28;20074;-76
2023/10/21 00:19:21;;;;;;;2.03;0.50;;;;;;;7.17;76.16;100247.91;5070799;28;20032;-76
2023/10/21 00:21:47;;;;;;;1.92;0.50;;;;;;;7.40;75.10;100247.72;5073493;28;20074;-77
2023/10/21 00:24:13;;;;;;;2.75;0.77;;;;;;;7.11;75.42;100241.47;5071070;28;20032;-77
2023/10/21 00:26:50;;;;;;;2.10;0.70;;;;;;;7.21;75.56;100260.69;5070597;28;20490;-76
2023/10/21 00:29:16;;;;;;;1.67;0.60;;;;;;;7.14;75.82;100254.44;5070221;28;20017;-76
2023/10/21 00:31:43;;;;;;;2.83;0.50;;;;;;;7.33;75.83;100263.72;5071592;28;20082;-76
2023/10/21 00:34:09;;;;;;;5.38;0.70;;;;;;;7.11;75.68;100236.09;5071472;28;20087;-75
2023/10/21 00:36:34;;;;;;;1.23;0.47;;;;;;;7.19;75.53;100246.69;5069165;28;20027;-76
2023/10/21 00:39:01;;;;;;;6.03;1.05;;;;;;;7.13;75.59;100266.19;5037287;28;20036;-76
2023/10/21 00:41:27;;;;;;;3.28;0.82;;;;;;;7.02;75.72;100238.09;5037038;28;20041;-76
2023/10/21 00:43:52;;;;;;;2.85;0.80;;;;;;;7.32;74.21;100266.56;5070384;28;20021;-76
2023/10/21 00:46:18;;;;;;;3.05;0.50;;;;;;;7.06;74.70;100252.75;5053191;28;20059;-76
2023/10/21 00:48:48;;;;;;;1.10;0.35;;;;;;;7.45;73.13;100270.22;5053914;28;20490;-77
2023/10/21 00:51:15;;;;;;;3.67;0.60;;;;;;;7.44;73.69;100267.72;5070191;28;20103;-76
2023/10/21 00:53:41;;;;;;;2.03;0.60;;;;;;;7.86;72.02;100282.91;5070161;28;20040;-76
2023/10/21 00:56:07;;;;;;;4.70;0.63;;;;;;;7.51;72.46;100296.19;5053198;28;20032;-76
2023/10/21 00:58:33;;;;;;;1.90;0.50;;;;;;;7.57;71.79;100273.19;5070220;28;20032;-77
2023/10/21 01:01:06;;;;;;;1.92;0.57;;;;;;;7.44;72.11;100299.84;5070400;28;20029;-76
2023/10/21 01:03:33;;;;;;;4.40;0.70;;;;;;;7.54;72.13;100293.13;5070987;28;20040;-76
2023/10/21 01:05:59;;;;;;;1.52;0.50;;;;;;;7.46;71.99;100284.44;5053663;28;20506;-76
2023/10/21 01:08:24;;;;;;;3.88;0.52;;;;;;;7.57;72.18;100302.66;5071488;28;20043;-77
2023/10/21 01:10:50;;;;;;;1.77;0.60;;;;;;;7.56;71.66;100284.94;5070532;28;20032;-76
2023/10/21 01:13:16;;;;;;;2.00;0.52;;;;;;;7.67;71.21;100308.50;5071103;28;20032;-76
2023/10/21 01:15:42;;;;;;;2.53;0.65;;;;;;;7.59;71.20;100314.00;5069613;28;20090;-77
2023/10/21 01:18:08;;;;;;;3.33;0.73;;;;;;;7.28;73.09;100308.94;5069839;28;20028;-77
2023/10/21 01:20:35;;;;;;;2.53;0.60;;;;;;;7.39;72.94;100312.97;5071023;28;20047;-76
2023/10/21 01:23:01;;;;;;;2.90;0.60;;;;;;;7.68;71.42;100301.28;5070255;28;20029;-76
2023/10/21 01:25:27;;;;;;;2.78;0.70;;;;;;;7.47;71.61;100296.78;5053581;28;20047;-77
2023/10/21 01:27:54;;;;;;;2.58;0.70;;;;;;;7.35;71.93;100287.59;5070211;28;20048;-76
2023/10/21 01:30:20;;;;;;;4.35;0.70;;;;;;;7.71;70.60;100309.75;5053240;28;20035;-77
2023/10/21 01:32:47;;;;;;;2.55;0.90;;;;;;;7.81;69.85;100306.75;5069892;28;20042;-76
2023/10/21 01:35:13;;;;;;;1.80;0.50;;;;;;;7.47;70.50;100292.25;5070049;28;20036;-76
2023/10/21 01:37:39;;;;;;;2.75;0.70;;;;;;;7.60;71.63;100309.47;5036744;28;20166;-76
2023/10/21 01:40:05;;;;;;;3.83;0.60;;;;;;;7.67;70.83;100308.50;5052985;28;20124;-76
2023/10/21 01:42:32;;;;;;;3.38;0.60;;;;;;;7.79;70.22;100299.97;5070683;28;20047;-76
2023/10/21 01:44:57;;;;;;;4.60;0.80;;;;;;;7.86;70.21;100311.56;5072522;28;20624;-76
2023/10/21 01:47:22;;;;;;;4.28;0.60;;;;;;;7.67;70.93;100296.97;5053573;28;20525;-76
2023/10/21 01:49:48;;;;;;;2.10;0.45;;;;;;;7.67;70.58;100302.31;5036563;28;20081;-76
2023/10/21 01:52:13;;;;;;;2.05;0.60;;;;;;;7.65;71.21;100305.19;5070627;28;20111;-76
2023/10/21 01:54:43;;;;;;;2.83;0.65;;;;;;;7.76;71.21;100312.72;5053093;28;20373;-77
2023/10/21 01:57:08;;;;;;;2.95;0.60;;;;;;;7.97;70.06;100325.25;5070752;28;20247;-76
2023/10/21 01:59:40;;;;;;;1.88;0.55;;;;;;;7.64;71.19;100308.88;5069640;28;20035;-76
2023/10/21 02:02:06;;;;;;;3.38;0.82;;;;;;;7.59;72.04;100294.44;5070453;28;20024;-76
2023/10/21 02:04:32;;;;;;;2.92;0.75;;;;;;;7.52;72.29;100297.88;5069282;28;20029;-76
2023/10/21 02:06:57;;;;;;;1.92;0.63;;;;;;;7.53;72.85;100291.50;5069627;28;20410;-76
2023/10/21 02:09:22;;;;;;;1.92;0.68;;;;;;;7.39;73.03;100280.88;5052981;28;20085;-76
2023/10/21 02:11:48;;;;;;;1.42;0.60;;;;;;;7.49;72.64;100289.41;5069569;28;20245;-77
2023/10/21 02:14:14;;;;;;;2.47;0.60;;;;;;;7.66;72.54;100295.31;5036661;28;20089;-76
2023/10/21 02:16:40;;;;;;;2.67;0.60;;;;;;;7.42;72.26;100246.50;5071124;28;20166;-77
2023/10/21 02:19:05;;;;;;;3.33;0.50;;;;;;;7.83;71.52;100288.66;5071058;28;20480;-77
2023/10/21 02:21:30;;;;;;;1.10;0.55;;;;;;;7.52;72.60;100257.72;5071095;28;20025;-77
2023/10/21 02:23:56;;;;;;;1.98;0.40;;;;;;;7.54;74.26;100279.75;5053039;28;20490;-77
2023/10/21 02:26:21;;;;;;;2.70;0.68;;;;;;;7.35;75.58;100272.38;5073510;28;20028;-76
2023/10/21 02:28:47;;;;;;;1.95;0.52;;;;;;;7.33;76.55;100244.97;5054634;28;20040;-77
2023/10/21 02:31:12;;;;;;;2.38;0.70;;;;;;;7.25;78.39;100286.09;5054088;28;20025;-77
2023/10/21 02:33:38;;;;;;;2.67;0.63;;;;;;;7.30;79.18;100275.63;5053146;28;20555;-77
2023/10/21 02:36:04;;;;;;;1.60;0.50;;;;;;;7.44;79.07;100270.41;5052691;28;20086;-76
2023/10/21 02:38:30;;;;;;;2.70;0.60;;;;;;;7.04;82.79;100276.16;5052634;28;20486;-76
2023/10/21 02:40:55;;;;;;;4.22;0.55;;;;;;;7.26;81.81;100271.66;5069411;28;20037;-77
2023/10/21 02:43:21;;;;;;;2.05;0.60;;;;;;;7.05;83.28;100267.16;5052709;28;20034;-76
2023/10/21 02:45:48;;;;;;;4.15;0.80;;;;;;;7.00;84.96;100287.44;5071226;28;20028;-76
2023/10/21 02:48:14;;;;;;;3.28;0.60;;;;;;;7.14;85.24;100258.97;5069601;28;20082;-76
2023/10/21 02:50:40;;;;;;;3.35;0.65;;;;;;;7.04;86.28;100254.75;5052938;28;20090;-76
2023/10/21 02:53:05;;;;;;;6.10;0.60;;;;;;;6.72;89.65;100261.41;5070547;28;20020;-75
2023/10/21 02:55:31;;;;;;;2.33;0.57;;;;;;;6.85;89.22;100262.56;5070632;28;20035;-75
2023/10/21 02:57:57;;;;;;;2.80;0.70;;;;;;;6.76;91.66;100268.03;5037191;28;20056;-75
2023/10/21 03:00:22;;;;;;;2.95;0.90;;;;;;;6.85;90.88;100263.41;5074494;28;20063;-75
2023/10/21 03:02:51;;;;;;;3.60;0.73;;;;;;;6.44;95.38;100258.56;5072074;28;20048;-75
2023/10/21 03:05:17;;;;;;;1.73;0.43;;;;;;;6.17;96.13;100205.81;5056598;28;20036;-76
2023/10/21 03:07:43;;;;;;;1.42;0.50;;;;;;;6.54;97.76;100261.78;5076793;28;20097;-75
2023/10/21 03:10:10;;;;;;;4.60;0.70;;;;;;;6.65;96.34;100248.97;5059244;28;20029;-75
2023/10/21 03:12:35;;;;;;;1.95;0.45;;;;;;;6.42;98.67;100239.22;5057844;28;20028;-76
2023/10/21 03:15:02;;;;;;;5.03;0.70;;;;;;;6.41;99.00;100253.59;5055998;28;20040;-76
2023/10/21 03:17:27;;;;;;;4.78;0.77;;;;;;;6.52;99.82;100255.81;5072553;28;20036;-76
2023/10/21 03:19:55;;;;;;;2.17;0.60;;;;;;;6.23;100.00;100258.50;5071653;28;20028;-76
2023/10/21 03:22:21;;;;;;;2.17;0.77;;;;;;;6.29;100.00;100247.06;5072740;28;20115;-76
2023/10/21 03:24:47;;;;;;;4.43;0.52;;;;;;;6.24;100.00;100249.47;5055453;28;20120;-76
2023/10/21 03:27:15;;;;;;;2.40;0.70;;;;;;;6.26;100.00;100218.88;5073553;28;20487;-76
2023/10/21 03:29:40;;;;;;;2.97;0.80;;;;;;;6.20;100.00;100240.19;5071966;28;20029;-76
2023/10/21 03:32:09;;;;;;;3.00;0.60;;;;;;;6.15;100.00;100186.47;5055421;28;20043;-76
2023/10/21 03:34:35;;;;;;;2.72;0.60;;;;;;;6.02;100.00;100221.81;5073210;28;20442;-75
2023/10/21 03:37:00;;;;;;;2.97;0.70;;;;;;;6.00;100.00;100191.81;5072061;28;20051;-76
2023/10/21 03:39:26;;;;;;;3.13;0.63;;;;;;;6.00;100.00;100221.19;5071877;28;20052;-76
2023/10/21 03:41:52;;;;;;;2.25;0.55;;;;;;;6.02;100.00;100227.16;5072805;28;20044;-76
2023/10/21 03:44:18;;;;;;;1.20;0.47;;;;;;;6.17;100.00;100227.19;5071673;28;20123;-76
2023/10/21 03:46:44;;;;;;;3.03;0.80;;;;;;;6.13;100.00;100220.56;5072910;28;20559;-76
2023/10/21 03:49:09;;;;;;;2.20;0.60;;;;;;;5.98;100.00;100225.88;5073203;28;20039;-77
2023/10/21 03:51:35;;;;;;;2.47;0.88;;;;;;;5.88;100.00;100220.78;5077480;28;20030;-76
2023/10/21 03:54:01;;;;;;;2.65;0.70;;;;;;;5.78;100.00;100191.66;5072926;28;20066;-77
2023/10/21 03:56:27;;;;;;;2.67;0.70;;;;;;;5.98;100.00;100199.19;5072773;28;20144;-77
2023/10/21 03:58:53;;;;;;;3.58;0.70;;;;;;;6.13;100.00;100213.38;5071822;28;20531;-77
2023/10/21 04:01:20;;;;;;;2.65;0.63;;;;;;;5.75;100.00;100204.56;5071868;28;20020;-77
2023/10/21 04:03:46;;;;;;;2.90;0.70;;;;;;;5.77;100.00;100194.53;5054468;28;20539;-77
2023/10/21 04:06:13;;;;;;;2.58;0.50;;;;;;;5.97;100.00;100214.38;5073030;28;20066;-77
2023/10/21 04:08:39;;;;;;;1.60;0.60;;;;;;;6.18;100.00;100226.97;5070879;28;20036;-77
2023/10/21 04:11:04;;;;;;;2.25;0.50;;;;;;;6.08;100.00;100242.47;5053278;28;20032;-77
2023/10/21 04:13:31;;;;;;;4.85;0.68;;;;;;;6.07;100.00;100235.47;5054198;28;20119;-77
2023/10/21 04:15:57;;;;;;;1.35;0.50;;;;;;;5.86;100.00;100225.47;5071108;28;20086;-77
2023/10/21 04:18:23;;;;;;;3.55;0.70;;;;;;;5.98;100.00;100256.06;5070878;28;20081;-77
2023/10/21 04:20:50;;;;;;;1.40;0.57;;;;;;;6.00;100.00;100243.38;5087385;28;20539;-77
2023/10/21 04:23:15;;;;;;;4.65;0.70;;;;;;;6.11;100.00;100237.56;5070724;28;20036;-77
2023/10/21 04:25:41;;;;;;;3.28;0.70;;;;;;;6.14;100.00;100247.06;5053493;28;20040;-77
2023/10/21 04:28:07;;;;;;;4.22;0.68;;;;;;;6.07;100.00;100225.59;5087669;28;20068;-78
2023/10/21 04:30:32;;;;;;;2.60;0.57;;;;;;;5.90;100.00;100213.41;5070622;28;20094;-78
2023/10/21 04:32:58;;;;;;;1.80;0.60;;;;;;;6.13;100.00;100240.09;5071533;28;20508;-75
2023/10/21 04:35:23;;;;;;;2.75;0.52;;;;;;;6.05;100.00;100254.34;5070125;28;20047;-77
2023/10/21 04:37:49;;;;;;;3.00;0.55;;;;;;;6.09;100.00;100228.09;5087567;28;20202;-77
2023/10/21 04:40:15;;;;;;;2.90;0.60;;;;;;;5.91;100.00;100240.94;5071389;28;20609;-78
2023/10/21 04:42:41;;;;;;;1.60;0.50;;;;;;;5.92;100.00;100232.75;5054305;28;20447;-77
2023/10/21 04:45:08;;;;;;;2.42;0.50;;;;;;;5.99;100.00;100227.53;5073321;28;20166;-78
2023/10/21 04:47:34;;;;;;;3.97;0.70;;;;;;;5.68;100.00;100206.31;5073831;28;20028;-77
2023/10/21 04:49:59;;;;;;;2.30;0.60;;;;;;;5.45;100.00;100156.47;5071188;28;20032;-78
2023/10/21 04:52:25;;;;;;;3.75;0.80;;;;;;;5.79;100.00;100221.88;5070879;28;20070;-78
2023/10/21 04:54:50;;;;;;;0.75;0.40;;;;;;;5.73;100.00;100214.56;5070690;28;20052;-78
2023/10/21 04:57:16;;;;;;;1.45;0.47;;;;;;;5.59;100.00;100217.03;5037065;28;20135;-77
2023/10/21 04:59:42;;;;;;;2.25;0.60;;;;;;;5.49;100.00;100234.31;5054197;28;20024;-78
2023/10/21 05:02:08;;;;;;;2.70;0.55;;;;;;;5.52;100.00;100216.09;5053477;28;20036;-78
2023/10/21 05:04:34;;;;;;;3.22;0.52;;;;;;;5.72;100.00;100236.94;5069913;28;20086;-78
2023/10/21 05:06:59;;;;;;;2.08;0.65;;;;;;;5.79;100.00;100237.88;5069616;28;20541;-78
2023/10/21 05:09:25;;;;;;;4.00;0.75;;;;;;;5.91;100.00;100233.75;5069809;28;20028;-77
2023/10/21 05:11:50;;;;;;;2.35;0.68;;;;;;;5.98;100.00;100226.72;5069648;28;20020;-78
2023/10/21 05:14:16;;;;;;;1.83;0.50;;;;;;;5.88;100.00;100202.91;5070787;28;20047;-78
2023/10/21 05:16:41;;;;;;;1.33;0.50;;;;;;;5.89;100.00;100267.81;5053051;28;20380;-78
2023/10/21 05:19:06;;;;;;;2.58;0.82;;;;;;;5.72;100.00;100259.13;5070242;28;20181;-78
2023/10/21 05:21:32;;;;;;;5.47;2.67;;;;;;;5.59;100.00;100253.56;5053005;28;20036;-78
2023/10/21 05:23:58;;;;;;;1.80;1.00;;;;;;;5.99;100.00;100279.09;5069779;28;20029;-78
2023/10/21 05:26:25;;;;;;;3.22;1.40;;;;;;;6.01;100.00;100278.94;5070074;28;20028;-78
2023/10/21 05:28:50;;;;;;;1.65;0.55;;;;;;;5.72;100.00;100277.81;5053661;28;20078;-77
2023/10/21 05:31:16;;;;;;;2.53;0.38;;;;;;;5.73;100.00;100281.31;5052828;28;20024;-78
2023/10/21 05:33:41;;;;;;;1.00;0.40;;;;;;;5.74;100.00;100280.31;5068100;28;20047;-78
2023/10/21 05:36:07;;;;;;;1.58;0.30;;;;;;;5.54;100.00;100246.13;5070143;28;20028;-78
2023/10/21 05:38:32;;;;;;;1.77;0.50;;;;;;;5.98;100.00;100281.97;5069133;28;20081;-78
2023/10/21 05:40:58;;;;;;;0.88;0.45;;;;;;;5.75;100.00;100284.66;5054415;28;20561;-77
2023/10/21 05:43:23;;;;;;;3.10;0.63;;;;;;;5.54;100.00;100213.28;5071113;28;20483;-77
2023/10/21 05:45:49;;;;;;;2.83;0.60;;;;;;;5.93;100.00;100279.84;5073337;28;20021;-79
2023/10/21 05:48:14;;;;;;;0.93;0.45;;;;;;;5.63;100.00;100274.41;5054421;28;20514;-79
2023/10/21 05:50:40;;;;;;;1.10;0.30;;;;;;;5.66;100.00;100289.22;5053446;28;20064;-78
2023/10/21 05:53:06;;;;;;;0.35;0.20;;;;;;;5.83;100.00;100289.94;5070215;28;20036;-78
2023/10/21 05:55:31;;;;;;;2.25;0.70;;;;;;;5.64;100.00;100284.06;5069354;28;20032;-78
2023/10/21 05:57:57;;;;;;;0.57;0.30;;;;;;;5.35;100.00;100289.31;5069586;28;20048;-78
2023/10/21 06:00:23;;;;;;;0.50;0.28;;;;;;;5.33;100.00;100293.97;5069693;28;20039;-78
2023/10/21 06:02:49;;;;;;;2.05;0.40;;;;;;;5.62;100.00;100306.59;5069711;28;20404;-77
2023/10/21 06:05:14;;;;;;;1.63;0.35;;;;;;;5.60;100.00;100314.81;5053079;28;20031;-78
2023/10/21 06:07:41;;;;;;;1.40;0.35;;;;;;;5.30;100.00;100318.38;5086479;28;20063;-78
2023/10/21 06:10:07;;;;;;;1.80;0.28;;;;;;;5.18;100.00;100302.75;5070712;28;20527;-77
2023/10/21 06:12:33;;;;;;;0.88;0.40;;;;;;;5.24;100.00;100308.41;5069153;28;20029;-77
2023/10/21 06:15:03;;;;;;;0.63;0.30;;;;;;;5.25;100.00;100286.03;5052440;28;20379;-76
2023/10/21 06:17:28;;;;;;;0.77;0.30;;;;;;;4.97;100.00;100302.56;5070609;28;20024;-77
2023/10/21 06:19:54;;;;;;;2.45;0.30;;;;;;;5.08;100.00;100299.47;5069844;28;20029;-78
2023/10/21 06:22:22;;;;;;;0.50;0.28;;;;;;;5.18;100.00;100291.25;5052541;28;20036;-77
2023/10/21 06:24:47;;;;;;;2.72;0.25;;;;;;;5.30;100.00;100260.50;5086286;28;20025;-78
2023/10/21 06:27:13;;;;;;;2.65;0.13;;;;;;;5.15;100.00;100304.94;5086302;28;20039;-77
2023/10/21 06:29:38;;;;;;;0.55;0.38;;;;;;;5.19;100.00;100307.06;5052745;28;20021;-78
2023/10/21 06:32:06;;;;;;;0.55;0.25;;;;;;;5.05;100.00;100323.81;5086199;28;20514;-77
2023/10/21 06:34:32;;;;;;;0.10;0.10;;;;;;;5.01;100.00;100308.34;5071377;28;20090;-77
2023/10/21 06:36:58;;;;;;;1.05;0.30;;;;;;;4.99;100.00;100294.38;5074811;28;20411;-77
2023/10/21 06:39:23;;;;;;;0.75;0.20;;;;;;;5.15;100.00;100300.44;5073627;28;20028;-78
2023/10/21 06:41:49;;;;;;;0.68;0.20;;;;;;;5.33;100.00;100269.97;5057405;28;20037;-77
2023/10/21 06:44:16;;;;;;;0.68;0.25;;;;;;;5.22;100.00;100297.88;5074418;28;20047;-77
2023/10/21 06:46:42;;;;;;;0.43;0.20;;;;;;;5.21;100.00;100298.91;5074677;28;20531;-77
2023/10/21 06:49:07;;;;;;;0.28;0.10;;;;;;;5.32;100.00;100274.47;5073063;28;20140;-73
2023/10/21 06:51:33;;;;;;;0.30;0.17;;;;;;;4.93;100.00;100253.22;5073217;28;20021;-75
2023/10/21 06:53:58;;;;;;;0.17;0.13;;;;;;;5.10;100.00;100301.94;5057293;28;20514;-76
2023/10/21 06:56:24;;;;;;;0.40;0.20;;;;;;;5.07;100.00;100260.50;5073634;28;20080;-76
2023/10/21 06:58:49;;;;;;;1.73;0.30;;;;;;;5.22;100.00;100270.38;5074879;28;20040;-76
2023/10/21 07:01:15;;;;;;;0.52;0.25;;;;;;;5.29;100.00;100282.81;5073368;28;20429;-75
2023/10/21 07:03:40;;;;;;;0.22;0.13;;;;;;;5.30;100.00;100307.69;5065066;28;20028;-75
2023/10/21 07:06:06;;;;;;;0.30;0.10;;;;;;;5.25;100.00;100289.53;5057943;28;20332;-76
2023/10/21 07:08:33;;;;;;;0.28;0.10;;;;;;;5.37;100.00;100281.97;5072640;28;20044;-72
2023/10/21 07:10:59;;;;;;;0.30;0.10;;;;;;;5.23;100.00;100275.56;5071209;28;20032;-72
2023/10/21 07:13:24;;;;;;;3.30;0.10;;;;;;;5.30;100.00;100297.84;5071181;28;20450;-73
2023/10/21 07:15:51;;;;;;;0.20;0.10;;;;;;;5.22;100.00;100251.72;5072147;28;20032;-74
2023/10/21 07:18:17;;;;;;;0.98;0.15;;;;;;;5.24;100.00;100255.03;5070568;28;20029;-74
2023/10/21 07:20:43;;;;;;;0.30;0.10;;;;;;;5.24;100.00;100268.38;5053832;28;20029;-74
2023/10/21 07:23:12;;;;;;;0.47;0.15;;;;;;;5.08;100.00;100250.66;5072589;28;20434;-73
2023/10/21 07:25:39;;;;;;;0.85;0.10;;;;;;;5.25;100.00;100256.69;5055841;28;20036;-74
2023/10/21 07:28:05;;;;;;;1.17;0.10;;;;;;;5.09;100.00;100273.63;5073038;28;20031;-74
2023/10/21 07:30:30;;;;;;;0.82;0.10;;;;;;;5.03;100.00;100283.16;5055672;28;20036;-74
2023/10/21 07:32:56;;;;;;;0.17;0.10;;;;;;;5.15;100.00;100271.09;5056021;28;20498;-73
2023/10/21 07:35:22;;;;;;;0.32;0.10;;;;;;;5.19;100.00;100272.38;5078746;28;20043;-73
2023/10/21 07:37:47;;;;;;;0.10;0.10;;;;;;;5.12;100.00;100258.09;5073320;28;20078;-73
2023/10/21 07:40:13;;;;;;;0.88;0.10;;;;;;;5.32;100.00;100263.81;5072180;28;20119;-74
2023/10/21 07:42:39;;;;;;;0.10;0.10;;;;;;;5.18;100.00;100249.41;5072070;28;20025;-74
2023/10/21 07:45:05;;;;;;;0.85;0.35;;;;;;;5.15;100.00;100255.09;5073163;28;20406;-73
2023/10/21 07:47:33;;;;;;;0.77;0.20;;;;;;;5.13;100.00;100249.13;5073041;28;20051;-73
2023/10/21 07:49:58;;;;;;;0.10;0.10;;;;;;;5.16;100.00;100258.56;5072163;28;20028;-76
2023/10/21 07:52:24;;;;;;;0.22;0.17;;;;;;;5.14;100.00;100245.44;5073256;28;20109;-73
2023/10/21 07:54:50;;;;;;;0.25;0.10;;;;;;;5.12;100.00;100242.09;5073267;28;20107;-72
2023/10/21 07:57:17;;;;;;;2.05;0.22;;;;;;;5.35;100.00;100246.63;5071602;28;20056;-72
2023/10/21 07:59:42;;;;;;;0.20;0.10;;;;;;;5.26;100.00;100245.00;5055142;28;20181;-73
2023/10/21 08:02:07;;;;;;;0.20;0.15;;;;;;;5.46;100.00;100251.50;5055265;28;20119;-77
2023/10/21 08:04:33;;;;;;;0.30;0.20;;;;;;;5.41;100.00;100248.56;5056885;28;20076;-77
2023/10/21 08:06:58;;;;;;;2.60;1.42;;;;;;;5.32;100.00;100233.63;5055295;28;20060;-75
2023/10/21 08:09:24;;;;;;;0.68;0.35;;;;;;;5.39;100.00;100231.91;5071998;28;20083;-78
2023/10/21 08:11:50;;;;;;;0.65;0.28;;;;;;;5.28;100.00;100251.00;5055015;28;20067;-77
2023/10/21 08:14:15;;;;;;;1.20;0.10;;;;;;;5.40;100.00;100244.25;5071273;28;20033;-78
2023/10/21 08:16:42;;;;;;;0.30;0.20;;;;;;;5.54;100.00;100246.13;5072455;28;20036;-77
2023/10/21 08:19:08;;;;;;;1.40;0.30;;;;;;;5.49;100.00;100240.47;5071489;28;20024;-78
2023/10/21 08:21:36;;;;;;;1.05;0.63;;;;;;;5.44;100.00;100218.88;5071444;28;20035;-78
2023/10/21 08:24:03;;;;;;;0.40;0.20;;;;;;;5.60;100.00;100240.06;5071747;28;20035;-77
2023/10/21 08:26:29;;;;;;;1.17;0.40;;;;;;;5.62;100.00;100221.19;5071312;28;20036;-78
2023/10/21 08:28:55;;;;;;;0.40;0.20;;;;;;;5.72;100.00;100234.28;5072985;28;20024;-77
2023/10/21 08:31:22;;;;;;;0.63;0.25;;;;;;;5.39;100.00;100224.72;5073840;28;20027;-76
2023/10/21 08:33:48;;;;;;;1.23;0.20;;;;;;;5.24;100.00;100220.38;5054962;28;20079;-76
2023/10/21 08:36:16;;;;;;;0.82;0.30;;;;;;;5.53;100.00;100211.59;5072282;28;20029;-76
2023/10/21 08:38:41;;;;;;;0.30;0.20;;;;;;;5.75;100.00;100273.97;5071001;28;20830;-76
2023/10/21 08:41:14;;;;;;;0.68;0.40;;;;;;;6.02;100.00;100236.00;5072309;28;20048;-76
2023/10/21 08:43:46;;;;;;;1.75;0.30;;;;;;;5.69;100.00;100219.44;5070935;28;20115;-78
2023/10/21 08:46:14;;;;;;;0.22;0.17;;;;;;;5.75;100.00;100207.22;5070627;28;20036;-76
2023/10/21 08:48:43;;;;;;;1.10;0.55;;;;;;;5.75;100.00;100224.06;5054091;28;20028;-77
2023/10/21 08:51:13;;;;;;;0.63;0.40;;;;;;;5.84;100.00;100240.84;5071983;28;20028;-77
2023/10/21 08:53:41;;;;;;;0.52;0.40;;;;;;;5.80;100.00;100259.06;5070782;28;20043;-77
2023/10/21 08:56:06;;;;;;;0.57;0.20;;;;;;;5.64;100.00;100220.00;5070524;28;20024;-77
2023/10/21 08:58:32;;;;;;;2.47;1.10;;;;;;;5.97;100.00;100253.59;5070668;28;20518;-78
2023/10/21 09:00:58;;;;;;;0.35;0.35;;;;;;;5.64;100.00;100197.84;5037459;28;20029;-78
2023/10/21 09:03:25;;;;;;;0.50;0.30;;;;;;;5.78;100.00;100234.38;5070628;28;20439;-77
2023/10/21 09:06:11;;;;;;;2.10;1.35;;;;;;;5.94;100.00;100244.13;5054490;28;20391;-77
2023/10/21 09:08:38;;;;;;;0.70;0.30;;;;;;;5.80;100.00;100236.88;5071255;28;20025;-77
2023/10/21 09:11:06;;;;;;;0.70;0.30;;;;;;;5.76;100.00;100224.88;5071187;28;20036;-78
2023/10/21 09:13:34;;;;;;;1.40;1.30;;;;;;;6.02;100.00;100219.97;5054121;28;20119;-77
2023/10/21 09:16:08;;;;;;;0.55;0.40;;;;;;;5.82;100.00;100248.19;5070532;28;20028;-78
2023/10/21 09:18:37;;;;;;;0.75;0.20;;;;;;;5.70;100.00;100233.66;5071832;28;20386;-78
2023/10/21 09:21:05;;;;;;;0.47;0.38;;;;;;;5.86;100.00;100250.34;5054573;28;20063;-78
2023/10/21 09:23:30;;;;;;;1.90;0.30;;;;;;;5.53;100.00;100187.56;5071610;28;20025;-77
2023/10/21 09:25:56;;;;;;;0.82;0.25;;;;;;;5.77;100.00;100262.09;5054540;28;20043;-78
2023/10/21 09:28:24;;;;;;;0.40;0.15;;;;;;;6.10;100.00;100259.97;5054213;28;20047;-78
2023/10/21 09:31:01;;;;;;;0.20;0.10;;;;;;;6.33;100.00;100246.53;5070961;28;20032;-78
2023/10/21 09:33:34;;;;;;;0.40;0.30;;;;;;;6.13;100.00;100242.75;5053858;28;20028;-79
2023/10/21 09:36:04;;;;;;;0.82;0.50;;;;;;;6.13;100.00;100265.97;5069115;28;20039;-78
2023/10/21 09:38:39;;;;;;;1.83;0.47;;;;;;;6.33;100.00;100257.22;5068071;28;20101;-78
2023/10/21 09:41:07;;;;;;;0.30;0.30;;;;;;;5.68;100.00;100166.25;5066132;28;20044;-77
2023/10/21 09:43:37;;;;;;;1.77;0.80;;;;;;;6.33;100.00;100273.25;5069640;28;20119;-78
2023/10/21 09:46:05;;;;;;;0.82;0.50;;;;;;;6.41;100.00;100245.59;5069348;28;20024;-77
2023/10/21 09:48:37;;;;;;;0.43;0.20;;;;;;;5.97;100.00;100230.41;5069411;28;20120;-77
2023/10/21 09:51:06;;;;;;;1.17;0.70;;;;;;;6.12;100.00;100233.06;5068168;28;20103;-78
2023/10/21 09:53:47;;;;;;;1.00;0.43;;;;;;;6.24;100.00;100255.63;5068036;28;20036;-77
2023/10/21 09:56:15;;;;;;;0.60;0.50;;;;;;;6.65;100.00;100251.63;5071151;28;20090;-77
2023/10/21 09:58:43;;;;;;;0.47;0.30;;;;;;;6.55;100.00;100260.78;5071175;28;20033;-76
2023/10/21 10:01:10;;;;;;;1.00;0.50;;;;;;;6.51;100.00;100222.06;5069717;28;20102;-76
2023/10/21 10:03:37;;;;;;;1.98;0.30;;;;;;;6.40;100.00;100243.94;5052124;28;20037;-75
2023/10/21 10:06:04;;;;;;;0.60;0.20;;;;;;;6.59;100.00;100251.38;5069646;28;20470;-76
2023/10/21 10:08:35;;;;;;;0.40;0.30;;;;;;;6.45;100.00;100249.53;5068597;28;20024;-75
2023/10/21 10:11:10;;;;;;;1.00;0.20;;;;;;;6.46;100.00;100229.84;5072270;28;20032;-75
2023/10/21 10:13:42;;;;;;;1.00;0.28;;;;;;;6.42;100.00;100227.69;5054878;28;20032;-76
2023/10/21 10:16:24;;;;;;;0.70;0.30;;;;;;;6.53;100.00;100262.00;5052740;28;20071;-76
2023/10/21 10:18:51;;;;;;;15.90;10.63;;;;;;;6.58;100.00;100243.53;5060359;28;20056;-78
2023/10/21 10:21:18;;;;;;;0.32;0.25;;;;;;;6.72;100.00;100247.19;5047496;28;20033;-78
2023/10/21 10:23:51;;;;;;;0.85;0.50;;;;;;;6.63;100.00;100246.50;5057691;28;20498;-77
2023/10/21 10:26:31;;;;;;;2.20;1.23;;;;;;;6.96;100.00;100244.19;5071751;28;20029;-78
2023/10/21 10:28:59;;;;;;;1.77;0.73;;;;;;;7.07;100.00;100243.69;5054659;28;20086;-77
2023/10/21 10:31:26;;;;;;;0.30;0.22;;;;;;;6.66;100.00;100215.88;5053859;28;20024;-77
2023/10/21 10:33:51;;;;;;;1.58;1.00;;;;;;;6.82;100.00;100235.19;5062308;28;20123;-77
2023/10/21 10:36:30;;;;;;;1.13;0.47;;;;;;;6.82;100.00;100258.41;5073522;28;20056;-77
2023/10/21 10:38:56;;;;;;;1.05;0.70;;;;;;;6.99;100.00;100249.16;5073444;28;20032;-77
2023/10/21 10:41:21;;;;;;;0.65;0.40;;;;;;;7.07;100.00;100278.47;5073074;28;20033;-76
2023/10/21 10:43:55;;;;;;;1.60;0.50;;;;;;;6.83;100.00;100206.63;5073752;28;20107;-78
2023/10/21 10:46:22;;;;;;;1.27;0.57;;;;;;;6.94;100.00;100254.25;5073057;28;20081;-76
2023/10/21 10:48:52;;;;;;;2.22;0.30;;;;;;;6.91;100.00;100227.88;5073085;28;20439;-76
2023/10/21 10:51:21;;;;;;;0.95;0.30;;;;;;;6.97;100.00;100237.81;5074953;28;20024;-76
2023/10/21 10:53:54;;;;;;;0.40;0.30;;;;;;;7.01;100.00;100228.38;5074442;28;20029;-77
2023/10/21 10:56:20;;;;;;;1.50;0.45;;;;;;;7.01;100.00;100249.78;5072661;28;20061;-76
2023/10/21 10:58:46;;;;;;;1.23;0.30;;;;;;;6.91;100.00;100235.91;5075731;28;20028;-76
2023/10/21 11:01:27;;;;;;;0.50;0.20;;;;;;;7.20;100.00;100258.22;5077027;28;20436;-75
2023/10/21 11:03:57;;;;;;;1.08;0.50;;;;;;;7.27;100.00;100240.38;5061722;28;20040;-76
2023/10/21 11:06:23;;;;;;;1.05;0.38;;;;;;;7.14;100.00;100240.25;5071842;28;20118;-76
2023/10/21 11:08:51;;;;;;;0.60;0.30;;;;;;;7.04;100.00;100227.19;5072194;28;20057;-76
2023/10/21 11:11:17;;;;;;;0.85;0.38;;;;;;;7.25;100.00;100245.94;5075481;28;20097;-76
2023/10/21 11:13:43;;;;;;;1.67;0.68;;;;;;;7.21;100.00;100252.66;5072866;28;20123;-76
2023/10/21 11:16:09;;;;;;;2.25;0.40;;;;;;;7.40;100.00;100245.84;5072896;28;20056;-76
2023/10/21 11:18:35;;;;;;;1.08;0.40;;;;;;;7.42;100.00;100251.88;5071253;28;20032;-76
2023/10/21 11:21:00;;;;;;;0.68;0.30;;;;;;;7.36;100.00;100241.91;5055999;28;20024;-76
2023/10/21 11:23:28;;;;;;;1.48;0.47;;;;;;;7.06;100.00;100234.00;5072369;28;20035;-76
2023/10/21 11:25:56;;;;;;;1.25;0.20;;;;;;;7.25;100.00;100237.06;5073752;28;20035;-76